Time;durP1;ratioP1;P1;durP2;ratioP2;P2;SDS_P1;SDS_P2;PMS_P1;PMS_P2;Temp;Humidity;BMP_temperature;BMP_pressure;BME280_temperature;BME280_humidity;BME280_pressure;Samples;Min_cycle;Max_cycle;Signal;HPM_P1;HPM_P2
2023/09/12 00:02:06;;;;;;;11.88;5.15;;;;;;;;;;5011466;28;20071;-54
2023/09/12 00:04:32;;;;;;;9.38;5.00;;;18.40;99.90;;;;;;5011792;28;20045;-54
2023/09/12 00:06:57;;;;;;;12.23;5.28;;;18.40;99.90;;;;;;5028695;28;20037;-53
2023/09/12 00:09:23;;;;;;;6.68;4.53;;;18.40;99.90;;;;;;5030471;28;20056;-50
2023/09/12 00:11:49;;;;;;;8.20;5.00;;;18.40;99.90;;;;;;5033510;28;20373;-51
2023/09/12 00:14:18;;;;;;;6.88;4.78;;;18.50;99.90;;;;;;5033110;28;20037;-53
2023/09/12 00:16:44;;;;;;;9.05;5.05;;;18.70;99.90;;;;;;5033814;28;20026;-51
2023/09/12 00:19:09;;;;;;;12.30;5.20;;;18.80;99.90;;;;;;5033127;28;20474;-53
2023/09/12 00:21:35;;;;;;;10.52;5.55;;;19.20;99.90;;;;;;5033633;28;20035;-54
2023/09/12 00:24:01;;;;;;;7.38;5.25;;;19.40;99.90;;;;;;5033457;28;20417;-54
2023/09/12 00:26:27;;;;;;;8.73;5.30;;;19.50;99.90;;;;;;4998299;28;20053;-51
2023/09/12 00:28:53;;;;;;;13.27;5.53;;;19.60;99.90;;;;;;5033066;28;20500;-51
2023/09/12 00:31:18;;;;;;;8.20;5.15;;;19.60;99.90;;;;;;5033044;28;20030;-50
2023/09/12 00:33:44;;;;;;;8.38;5.47;;;19.80;99.90;;;;;;5014841;28;20040;-54
2023/09/12 00:36:10;;;;;;;8.63;5.40;;;19.80;99.90;;;;;;5031731;28;20105;-53
2023/09/12 00:38:35;;;;;;;7.30;4.95;;;19.80;99.90;;;;;;5033067;28;20022;-51
2023/09/12 00:41:01;;;;;;;6.53;4.90;;;19.90;99.90;;;;;;5014849;28;20073;-54
2023/09/12 00:43:27;;;;;;;12.25;5.40;;;19.90;99.90;;;;;;5032937;28;20029;-54
2023/09/12 00:45:53;;;;;;;7.75;5.22;;;19.90;99.90;;;;;;5033507;28;20029;-52
2023/09/12 00:48:21;;;;;;;13.60;5.90;;;19.90;99.90;;;;;;5032452;28;20038;-51
2023/09/12 00:50:49;;;;;;;7.85;5.25;;;19.80;99.90;;;;;;5018000;28;20087;-50
2023/09/12 00:53:17;;;;;;;10.50;5.72;;;19.80;99.90;;;;;;5032762;28;20030;-52
2023/09/12 00:55:49;;;;;;;8.25;5.20;;;19.80;99.90;;;;;;5032490;28;20057;-54
2023/09/12 00:58:15;;;;;;;10.00;6.22;;;19.60;99.90;;;;;;5032727;28;20511;-50
2023/09/12 01:00:41;;;;;;;9.00;5.68;;;19.30;99.90;;;;;;5032991;28;20036;-54
2023/09/12 01:03:07;;;;;;;11.70;5.20;;;19.00;99.90;;;;;;5033131;28;20026;-53
2023/09/12 01:05:34;;;;;;;11.95;5.82;;;18.80;99.90;;;;;;5033303;28;20572;-54
2023/09/12 01:08:00;;;;;;;8.57;4.97;;;18.80;99.90;;;;;;5014590;28;20120;-53
2023/09/12 01:10:26;;;;;;;8.98;5.60;;;18.80;99.90;;;;;;5032579;28;20041;-53
2023/09/12 01:12:52;;;;;;;11.65;5.70;;;18.90;99.90;;;;;;5032960;28;20030;-52
2023/09/12 01:15:18;;;;;;;9.68;5.25;;;19.20;99.90;;;;;;5032604;28;20028;-55
2023/09/12 01:17:45;;;;;;;12.00;5.85;;;19.10;99.90;;;;;;5032610;28;20481;-51
2023/09/12 01:20:19;;;;;;;11.65;5.85;;;19.10;99.90;;;;;;5032907;28;20374;-54
2023/09/12 01:22:57;;;;;;;9.43;5.78;;;19.40;99.90;;;;;;5036709;28;20373;-53
2023/09/12 01:25:47;;;;;;;8.38;5.55;;;19.50;99.90;;;;;;5036156;28;20547;-53
2023/09/12 01:28:15;;;;;;;11.60;5.97;;;19.40;99.90;;;;;;5036023;28;20092;-52
2023/09/12 01:30:43;;;;;;;10.13;5.97;;;19.40;99.90;;;;;;5036403;28;20037;-53
2023/09/12 01:33:09;;;;;;;12.75;6.90;;;19.00;99.90;;;;;;5036610;28;20037;-51
2023/09/12 01:35:35;;;;;;;8.65;5.75;;;19.10;99.90;;;;;;5036326;28;20100;-53
2023/09/12 01:38:01;;;;;;;11.60;5.85;;;;;;;;;;5035917;28;20457;-53
2023/09/12 01:40:49;;;;;;;12.18;6.03;;;19.20;99.90;;;;;;5035974;28;20029;-53
2023/09/12 01:43:17;;;;;;;10.25;6.30;;;18.90;99.90;;;;;;5036263;28;20026;-53
2023/09/12 01:45:45;;;;;;;10.40;6.18;;;18.60;99.90;;;;;;5035790;28;20040;-52
2023/09/12 01:48:12;;;;;;;13.85;6.60;;;18.30;99.90;;;;;;5035980;28;20504;-53
2023/09/12 01:50:38;;;;;;;10.93;6.63;;;18.30;99.90;;;;;;5036195;28;20037;-53
2023/09/12 01:53:04;;;;;;;13.82;6.40;;;18.30;99.90;;;;;;5035622;28;20028;-51
2023/09/12 01:55:31;;;;;;;9.75;6.20;;;18.10;99.90;;;;;;5036160;28;20029;-55
2023/09/12 01:57:57;;;;;;;8.45;5.95;;;18.10;99.90;;;;;;5035769;28;20044;-53
2023/09/12 02:00:24;;;;;;;9.60;5.85;;;;;;;;;;5035564;28;20040;-53
2023/09/12 02:02:50;;;;;;;9.35;5.93;;;18.30;99.90;;;;;;5035124;28;20025;-50
2023/09/12 02:05:19;;;;;;;8.30;5.40;;;18.20;99.90;;;;;;5035605;28;20033;-53
2023/09/12 02:07:45;;;;;;;8.70;5.40;;;18.10;99.90;;;;;;5035256;28;20040;-51
2023/09/12 02:10:12;;;;;;;8.43;5.53;;;18.10;99.90;;;;;;5035407;28;20064;-50
2023/09/12 02:12:38;;;;;;;13.38;6.60;;;;;;;;;;5035289;28;20112;-52
2023/09/12 02:15:04;;;;;;;9.75;6.30;;;;;;;;;;5035370;28;20365;-53
2023/09/12 02:17:30;;;;;;;10.23;5.70;;;;;;;;;;5035558;28;20037;-50
2023/09/12 02:19:56;;;;;;;13.30;5.95;;;;;;;;;;5035721;28;20030;-54
2023/09/12 02:22:23;;;;;;;10.18;5.60;;;;;;;;;;5035150;28;20083;-53
2023/09/12 02:24:49;;;;;;;10.30;5.97;;;17.00;99.90;;;;;;5035085;28;20033;-51
2023/09/12 02:27:15;;;;;;;9.15;5.55;;;17.20;99.90;;;;;;5035067;28;20065;-52
2023/09/12 02:29:42;;;;;;;10.65;5.57;;;17.30;99.90;;;;;;5034906;28;20033;-55
2023/09/12 02:32:08;;;;;;;9.93;5.40;;;17.50;99.90;;;;;;5034741;28;20083;-53
2023/09/12 02:34:34;;;;;;;9.65;5.57;;;17.50;99.90;;;;;;5034672;28;20029;-52
2023/09/12 02:37:00;;;;;;;11.00;6.00;;;17.60;99.90;;;;;;5035296;28;20357;-53
2023/09/12 02:39:27;;;;;;;9.82;5.88;;;17.70;99.90;;;;;;5032899;28;20054;-53
2023/09/12 02:41:53;;;;;;;11.95;6.60;;;17.40;99.90;;;;;;5016607;28;20048;-54
2023/09/12 02:44:19;;;;;;;9.85;6.35;;;;;;;;;;5034688;28;20029;-52
2023/09/12 02:46:45;;;;;;;8.38;4.97;;;;;;;;;;5035188;28;20026;-52
2023/09/12 02:49:11;;;;;;;11.93;5.88;;;;;;;;;;5034656;28;20041;-53
2023/09/12 02:51:41;;;;;;;10.75;6.20;;;16.60;99.90;;;;;;5034616;28;20021;-52
2023/09/12 02:54:06;;;;;;;7.60;5.70;;;17.10;99.90;;;;;;5034692;28;20036;-52
2023/09/12 02:56:32;;;;;;;13.38;6.05;;;;;;;;;;5034801;28;20116;-54
2023/09/12 02:58:59;;;;;;;11.85;5.65;;;;;;;;;;5034348;28;20031;-51
2023/09/12 03:01:28;;;;;;;8.38;5.70;;;17.20;99.90;;;;;;5034328;28;20029;-49
2023/09/12 03:03:54;;;;;;;12.48;6.28;;;17.50;99.90;;;;;;5034673;28;20034;-52
2023/09/12 03:06:20;;;;;;;8.10;6.28;;;17.40;99.90;;;;;;5016002;28;20041;-53
2023/09/12 03:08:47;;;;;;;8.75;5.25;;;;;;;;;;5034179;28;20056;-51
2023/09/12 03:11:13;;;;;;;10.50;5.90;;;;;;;;;;5033635;28;20026;-50
2023/09/12 03:13:40;;;;;;;7.78;5.65;;;;;;;;;;5034473;28;20453;-50
2023/09/12 03:16:10;;;;;;;7.65;5.35;;;;;;;;;;5032267;28;20041;-53
2023/09/12 03:18:36;;;;;;;12.25;6.15;;;;;;;;;;5034188;28;20461;-53
2023/09/12 03:21:02;;;;;;;8.43;6.35;;;;;;;;;;5034574;28;20026;-54
2023/09/12 03:23:28;;;;;;;11.77;5.32;;;;;;;;;;5034085;28;20030;-50
2023/09/12 03:25:54;;;;;;;11.77;6.15;;;17.70;99.90;;;;;;5033579;28;20117;-53
2023/09/12 03:28:20;;;;;;;13.85;6.18;;;17.80;99.90;;;;;;5034008;28;20072;-51
2023/09/12 03:30:47;;;;;;;10.68;5.88;;;17.70;99.90;;;;;;5034076;28;20416;-54
2023/09/12 03:33:12;;;;;;;9.23;5.30;;;17.90;99.90;;;;;;5033813;28;20030;-54
2023/09/12 03:35:38;;;;;;;12.13;6.50;;;17.70;99.90;;;;;;5034024;28;20029;-54
2023/09/12 03:38:04;;;;;;;9.38;5.75;;;17.70;99.90;;;;;;5033714;28;20029;-53
2023/09/12 03:40:30;;;;;;;6.82;5.25;;;;;;;;;;5010920;28;20096;-53
2023/09/12 03:42:56;;;;;;;11.13;5.65;;;17.00;99.90;;;;;;5013971;28;20156;-52
2023/09/12 03:45:23;;;;;;;9.68;5.35;;;;;;;;;;5014003;28;20128;-54
2023/09/12 03:47:48;;;;;;;12.48;6.35;;;16.30;99.90;;;;;;5012774;28;20485;-53
2023/09/12 03:50:14;;;;;;;10.43;5.45;;;16.30;99.90;;;;;;5013620;28;20165;-54
2023/09/12 03:52:40;;;;;;;10.20;6.35;;;16.20;99.90;;;;;;5013884;28;20026;-51
2023/09/12 03:55:06;;;;;;;10.73;5.78;;;16.30;99.90;;;;;;5014191;28;20462;-54
2023/09/12 03:57:32;;;;;;;7.20;5.45;;;;;;;;;;5012047;28;20410;-52
2023/09/12 03:59:59;;;;;;;10.50;6.63;;;15.90;99.90;;;;;;5021302;28;20572;-53
2023/09/12 04:02:25;;;;;;;10.40;5.70;;;;;;;;;;5033654;28;20041;-55
2023/09/12 04:04:51;;;;;;;8.70;5.63;;;;;;;;;;5033001;28;20385;-52
2023/09/12 04:07:18;;;;;;;9.38;5.82;;;;;;;;;;5033194;28;20068;-52
2023/09/12 04:09:44;;;;;;;8.77;5.82;;;;;;;;;;5033443;28;20053;-52
2023/09/12 04:12:10;;;;;;;9.80;5.90;;;;;;;;;;5032959;28;20038;-54
2023/09/12 04:14:36;;;;;;;9.05;5.88;;;16.10;99.90;;;;;;5032847;28;20120;-55
2023/09/12 04:17:03;;;;;;;8.60;6.07;;;16.30;99.90;;;;;;5032271;28;20117;-51
2023/09/12 04:19:31;;;;;;;9.35;5.70;;;16.60;99.90;;;;;;5033089;28;20381;-54
2023/09/12 04:21:57;;;;;;;7.65;6.05;;;16.40;99.90;;;;;;5014928;28;20129;-53
2023/09/12 04:24:22;;;;;;;11.13;6.28;;;16.60;99.90;;;;;;5033551;28;20115;-55
2023/09/12 04:26:48;;;;;;;8.45;5.63;;;16.90;99.90;;;;;;4998405;28;20045;-50
2023/09/12 04:29:14;;;;;;;10.00;5.40;;;17.10;99.90;;;;;;5032095;28;20048;-53
2023/09/12 04:31:39;;;;;;;10.32;6.07;;;16.80;99.90;;;;;;5033297;28;20496;-51
2023/09/12 04:34:05;;;;;;;14.98;6.80;;;16.70;99.90;;;;;;5033760;28;20026;-51
2023/09/12 04:36:31;;;;;;;13.00;6.75;;;16.80;99.90;;;;;;5031286;28;20041;-54
2023/09/12 04:38:57;;;;;;;10.43;7.20;;;16.70;99.90;;;;;;4965988;28;20095;-54
2023/09/12 04:41:23;;;;;;;9.98;8.05;;;16.60;99.90;;;;;;5032976;28;20327;-53
2023/09/12 04:43:48;;;;;;;18.80;10.38;;;16.70;99.90;;;;;;5033312;28;20033;-51
2023/09/12 04:46:14;;;;;;;14.45;10.07;;;16.80;99.90;;;;;;5032408;28;20065;-55
2023/09/12 04:48:40;;;;;;;14.30;10.60;;;16.60;99.90;;;;;;5032757;28;20029;-52
2023/09/12 04:51:06;;;;;;;16.92;10.60;;;16.60;99.90;;;;;;5032318;28;20033;-50
2023/09/12 04:53:34;;;;;;;20.98;16.83;;;16.70;99.90;;;;;;5032350;28;20060;-54
2023/09/12 04:56:01;;;;;;;28.48;20.75;;;16.80;99.90;;;;;;5033453;28;20040;-54
2023/09/12 04:58:27;;;;;;;25.58;20.08;;;17.00;99.90;;;;;;5036694;28;20021;-52
2023/09/12 05:00:54;;;;;;;18.08;13.88;;;17.10;99.90;;;;;;5036317;28;20104;-55
2023/09/12 05:03:20;;;;;;;10.07;7.65;;;17.20;99.90;;;;;;5035940;28;20025;-54
2023/09/12 05:05:47;;;;;;;12.02;6.90;;;17.30;99.90;;;;;;5036932;28;20033;-52
2023/09/12 05:08:13;;;;;;;10.80;6.22;;;17.30;99.90;;;;;;5036831;28;20034;-51
2023/09/12 05:10:39;;;;;;;14.32;6.95;;;17.30;99.90;;;;;;5036831;28;20041;-49
2023/09/12 05:13:05;;;;;;;13.50;6.47;;;17.30;99.90;;;;;;5036640;28;20112;-50
2023/09/12 05:15:31;;;;;;;8.23;5.95;;;17.50;99.90;;;;;;5036468;28;20072;-50
2023/09/12 05:17:57;;;;;;;10.23;6.50;;;17.80;99.90;;;;;;5036808;28;20038;-52
2023/09/12 05:20:22;;;;;;;9.07;5.75;;;18.20;99.90;;;;;;5036566;28;20489;-55
2023/09/12 05:22:48;;;;;;;10.13;6.28;;;18.10;99.90;;;;;;5036431;28;20038;-54
2023/09/12 05:25:14;;;;;;;9.80;6.07;;;18.10;99.90;;;;;;5036186;28;20029;-52
2023/09/12 05:27:40;;;;;;;8.13;6.32;;;17.80;99.90;;;;;;5036152;28;20049;-51
2023/09/12 05:30:06;;;;;;;9.65;6.28;;;17.80;99.90;;;;;;5032911;28;20121;-53
2023/09/12 05:32:32;;;;;;;10.98;7.22;;;18.40;99.90;;;;;;5005965;28;20124;-52
2023/09/12 05:34:58;;;;;;;11.52;6.95;;;18.00;99.90;;;;;;5025217;28;20116;-54
2023/09/12 05:37:23;;;;;;;13.50;7.40;;;18.30;99.90;;;;;;4997911;28;20058;-54
2023/09/12 05:39:49;;;;;;;10.68;7.05;;;18.50;99.90;;;;;;5016595;28;20041;-53
2023/09/12 05:42:20;;;;;;;10.88;7.50;;;18.70;99.90;;;;;;5016706;28;20474;-53
2023/09/12 05:44:48;;;;;;;14.02;8.15;;;18.90;99.90;;;;;;5016274;28;20030;-53
2023/09/12 05:47:14;;;;;;;11.00;7.97;;;19.40;99.90;;;;;;5016230;28;20072;-53
2023/09/12 05:49:40;;;;;;;11.90;8.00;;;19.30;99.90;;;;;;5016347;28;20068;-51
2023/09/12 05:52:06;;;;;;;12.60;8.13;;;19.20;99.90;;;;;;5016142;28;20037;-50
2023/09/12 05:54:31;;;;;;;11.07;8.27;;;19.20;99.90;;;;;;5015979;28;20557;-52
2023/09/12 05:56:57;;;;;;;14.02;9.07;;;19.30;99.90;;;;;;5016430;28;20030;-51
2023/09/12 05:59:23;;;;;;;15.32;8.23;;;;;;;;;;5016200;28;20060;-53
2023/09/12 06:01:49;;;;;;;13.32;8.75;;;19.70;99.90;;;;;;5016196;28;20382;-50
2023/09/12 06:04:15;;;;;;;11.25;9.27;;;20.00;99.90;;;;;;5016134;28;20036;-52
2023/09/12 06:06:41;;;;;;;16.55;9.80;;;19.80;99.90;;;;;;5015739;28;20030;-52
2023/09/12 06:09:08;;;;;;;15.60;11.10;;;;;;;;;;5012984;28;20096;-52
2023/09/12 06:11:34;;;;;;;20.08;12.65;;;;;;;;;;5016179;28;20573;-54
2023/09/12 06:14:00;;;;;;;18.15;13.15;;;20.60;99.90;;;;;;5015867;28;20038;-50
2023/09/12 06:16:26;;;;;;;21.70;13.50;;;20.90;99.90;;;;;;5015588;28;20482;-53
2023/09/12 06:18:53;;;;;;;19.13;14.48;;;;;;;;;;5015592;28;20037;-53
2023/09/12 06:21:21;;;;;;;21.65;15.48;;;20.90;99.90;;;;;;5015861;28;20037;-52
2023/09/12 06:23:47;;;;;;;20.15;14.38;;;21.00;99.90;;;;;;5015699;28;20120;-53
2023/09/12 06:26:13;;;;;;;18.80;12.00;;;21.00;99.90;;;;;;5015321;28;20084;-54
2023/09/12 06:28:40;;;;;;;14.73;8.05;;;20.80;99.90;;;;;;5015616;28;20074;-53
2023/09/12 06:31:09;;;;;;;14.73;5.97;;;20.90;99.90;;;;;;5015378;28;20037;-52
2023/09/12 06:33:35;;;;;;;11.00;5.10;;;21.10;99.90;;;;;;5015625;28;20389;-57
2023/09/12 06:36:02;;;;;;;9.52;5.55;;;;;;;;;;5015471;28;20038;-52
2023/09/12 06:38:28;;;;;;;14.23;5.45;;;;;;;;;;5015999;28;20038;-55
2023/09/12 06:40:55;;;;;;;13.63;5.60;;;;;;;;;;5034677;28;20025;-55
2023/09/12 06:43:21;;;;;;;8.00;5.03;;;;;;;;;;5034874;28;20037;-56
2023/09/12 06:45:48;;;;;;;12.40;5.00;;;;;;;;;;5033475;28;20032;-53
2023/09/12 06:48:14;;;;;;;10.98;5.00;;;;;;;;;;5034195;28;20038;-51
2023/09/12 06:50:40;;;;;;;8.57;4.88;;;;;;;;;;5034116;28;20079;-53
2023/09/12 06:53:07;;;;;;;12.02;5.82;;;;;;;;;;5034338;28;20030;-52
2023/09/12 06:55:33;;;;;;;14.95;5.40;;;;;;;;;;5034035;28;20416;-50
2023/09/12 06:57:59;;;;;;;9.27;4.88;;;;;;;;;;5034170;28;20030;-50
2023/09/12 07:00:26;;;;;;;9.32;6.15;;;;;;;;;;5012928;28;20039;-53
2023/09/12 07:02:52;;;;;;;14.18;5.78;;;;;;;;;;5034313;28;20366;-50
2023/09/12 07:05:18;;;;;;;14.70;5.30;;;;;;;;;;5022445;28;20033;-50
2023/09/12 07:07:44;;;;;;;18.27;7.30;;;;;;;;;;5030537;28;20037;-49
2023/09/12 07:10:11;;;;;;;17.55;7.65;;;24.40;99.90;;;;;;5016088;28;20057;-52
2023/09/12 07:12:37;;;;;;;14.00;8.55;;;;;;;;;;5032754;28;20037;-52
2023/09/12 07:15:04;;;;;;;17.02;9.25;;;;;;;;;;5033234;28;20108;-53
2023/09/12 07:17:30;;;;;;;21.77;11.82;;;;;;;;;;4994690;28;20100;-52
2023/09/12 07:19:57;;;;;;;23.55;15.85;;;;;;;;;;5027695;28;20073;-53
2023/09/12 07:22:23;;;;;;;29.02;16.83;;;;;;;;;;5031172;28;20044;-53
2023/09/12 07:24:49;;;;;;;20.75;12.90;;;;;;;;;;5033760;28;20045;-52
2023/09/12 07:27:15;;;;;;;16.77;9.75;;;;;;;;;;5033586;28;20066;-53
2023/09/12 07:29:41;;;;;;;13.93;7.78;;;;;;;;;;5033932;28;20087;-50
2023/09/12 07:32:07;;;;;;;10.40;5.50;;;;;;;;;;5033560;28;20036;-51
2023/09/12 07:34:33;;;;;;;8.63;4.97;;;;;;;;;;5033383;28;20115;-52
2023/09/12 07:36:59;;;;;;;11.20;5.03;;;;;;;;;;5033535;28;20029;-54
2023/09/12 07:39:25;;;;;;;10.35;5.68;;;;;;;;;;5034098;28;20033;-53
2023/09/12 07:41:51;;;;;;;12.95;5.22;;;;;;;;;;5034112;28;20057;-53
2023/09/12 07:44:18;;;;;;;9.73;5.18;;;;;;;;;;5033759;28;20034;-53
2023/09/12 07:46:44;;;;;;;10.55;5.07;;;;;;;;;;5033717;28;20080;-52
2023/09/12 07:49:10;;;;;;;8.73;5.05;;;;;;;;;;5033620;28;20033;-50
2023/09/12 07:51:37;;;;;;;14.13;4.75;;;;;;;;;;5033670;28;20043;-50
2023/09/12 07:54:03;;;;;;;9.00;4.95;;;28.30;99.90;;;;;;5033576;28;20072;-52
2023/09/12 07:56:29;;;;;;;8.80;4.60;;;;;;;;;;5015263;28;20049;-52
2023/09/12 07:58:56;;;;;;;11.43;6.03;;;28.20;94.80;;;;;;5015316;28;20049;-53
2023/09/12 08:01:22;;;;;;;10.75;4.82;;;;;;;;;;5033717;28;20108;-53
2023/09/12 08:03:48;;;;;;;10.05;5.35;;;;;;;;;;5033330;28;20029;-53
2023/09/12 08:06:14;;;;;;;13.57;4.85;;;;;;;;;;4982628;28;20037;-54
2023/09/12 08:08:40;;;;;;;11.30;5.75;;;;;;;;;;5033713;28;20021;-53
2023/09/12 08:11:07;;;;;;;11.60;5.90;;;;;;;;;;5033509;28;20171;-51
2023/09/12 08:13:32;;;;;;;14.35;5.55;;;29.20;99.90;;;;;;5015288;28;20033;-51
2023/09/12 08:15:59;;;;;;;13.68;5.20;;;;;;;;;;5033173;28;20025;-51
2023/09/12 08:18:30;;;;;;;11.23;5.30;;;;;;;;;;5033562;28;20116;-52
2023/09/12 08:20:56;;;;;;;;;;;;;;;;;;5034162;28;20033;-53
2023/09/12 08:23:22;;;;;;;11.27;5.35;;;;;;;;;;5031491;28;20369;-53
2023/09/12 08:25:48;;;;;;;12.68;5.75;;;;;;;;;;5033060;28;20469;-54
2023/09/12 08:28:15;;;;;;;9.35;5.00;;;;;;;;;;5033518;28;20462;-51
2023/09/12 08:30:40;;;;;;;14.27;6.15;;;31.30;99.90;;;;;;5034109;28;20037;-54
2023/09/12 08:33:06;;;;;;;12.10;5.88;;;31.30;92.60;;;;;;5037170;28;20028;-50
2023/09/12 08:35:33;;;;;;;9.93;5.05;;;31.30;92.70;;;;;;5037365;28;20037;-54
2023/09/12 08:37:58;;;;;;;11.63;5.13;;;31.40;92.30;;;;;;5018815;28;20116;-53
2023/09/12 08:40:24;;;;;;;15.20;5.97;;;;;;;;;;5037440;28;20068;-55
2023/09/12 08:42:52;;;;;;;10.70;5.50;;;31.90;94.30;;;;;;5037257;28;20461;-54
2023/09/12 08:45:18;;;;;;;11.85;5.25;;;;;;;;;;5037191;28;20021;-53
2023/09/12 08:47:50;;;;;;;10.60;5.47;;;32.50;91.60;;;;;;5037281;28;20030;-54
2023/09/12 08:50:16;;;;;;;12.50;5.60;;;;;;;;;;5037208;28;20044;-54
2023/09/12 08:52:44;;;;;;;14.57;6.25;;;32.80;94.30;;;;;;5037263;28;20068;-54
2023/09/12 08:55:10;;;;;;;9.25;4.90;;;;;;;;;;5036852;28;20547;-54
2023/09/12 08:57:37;;;;;;;20.95;5.03;;;;;;;;;;5037183;28;20060;-52
2023/09/12 09:00:06;;;;;;;10.30;5.28;;;;;;;;;;5036687;28;20022;-54
2023/09/12 09:02:33;;;;;;;11.88;5.03;;;;;;;;;;5035082;28;20491;-52
2023/09/12 09:05:01;;;;;;;13.80;5.65;;;;;;;;;;5033979;28;20033;-53
2023/09/12 09:07:28;;;;;;;13.95;5.32;;;;;;;;;;5036067;28;20036;-54
2023/09/12 09:09:55;;;;;;;7.72;4.85;;;;;;;;;;5035884;28;20072;-54
2023/09/12 09:12:21;;;;;;;9.30;5.43;;;34.20;95.00;;;;;;5033757;28;20052;-50
2023/09/12 09:14:47;;;;;;;11.35;5.55;;;33.80;90.20;;;;;;5034434;28;20461;-52
2023/09/12 09:17:15;;;;;;;11.50;4.90;;;33.60;89.80;;;;;;5009422;28;20044;-50
2023/09/12 09:19:43;;;;;;;9.10;5.05;;;34.10;90.10;;;;;;5033479;28;20392;-52
2023/09/12 09:22:09;;;;;;;9.30;4.72;;;;;;;;;;5035007;28;20021;-52
2023/09/12 09:24:34;;;;;;;19.75;5.68;;;34.60;99.10;;;;;;5036527;28;20026;-51
2023/09/12 09:27:01;;;;;;;10.65;4.45;;;;;;;;;;5036093;28;20414;-54
2023/09/12 09:29:32;;;;;;;11.80;4.80;;;;;;;;;;4984526;28;20074;-55
2023/09/12 09:32:00;;;;;;;12.32;5.30;;;;;;;;;;5034397;28;20038;-50
2023/09/12 09:34:31;;;;;;;18.13;6.82;;;35.00;99.90;;;;;;5034774;28;20041;-52
2023/09/12 09:36:57;;;;;;;12.30;4.32;;;34.90;97.00;;;;;;5035625;28;20040;-54
2023/09/12 09:39:25;;;;;;;14.20;4.65;;;35.00;97.10;;;;;;5017083;28;20388;-52
2023/09/12 09:41:52;;;;;;;9.70;4.70;;;;;;;;;;5036047;28;20416;-53
2023/09/12 09:44:19;;;;;;;7.95;4.60;;;;;;;;;;5036262;28;20048;-49
2023/09/12 09:46:46;;;;;;;10.13;4.65;;;;;;;;;;5036217;28;20470;-53
2023/09/12 09:49:15;;;;;;;9.77;4.72;;;;;;;;;;5036005;28;20029;-51
2023/09/12 09:51:45;;;;;;;14.30;4.70;;;;;;;;;;5035737;28;20083;-53
2023/09/12 09:54:12;;;;;;;12.98;4.85;;;;;;;;;;5035715;28;20026;-53
2023/09/12 09:56:59;;;;;;;11.00;4.72;;;36.00;91.00;;;;;;5036288;28;20057;-54
2023/09/12 09:59:26;;;;;;;12.30;4.47;;;35.30;86.00;;;;;;5001123;28;20061;-50
2023/09/12 10:02:00;;;;;;;10.13;5.35;;;;;;;;;;5035777;28;20029;-50
2023/09/12 10:04:31;;;;;;;8.00;4.18;;;35.70;85.70;;;;;;5035937;28;20374;-54
2023/09/12 10:06:58;;;;;;;10.00;4.50;;;36.20;86.40;;;;;;5035942;28;20380;-51
2023/09/12 10:09:27;;;;;;;11.73;4.53;;;36.50;86.60;;;;;;5035820;28;20037;-52
2023/09/12 10:11:56;;;;;;;9.02;4.43;;;36.90;91.70;;;;;;5035563;28;20044;-53
2023/09/12 10:14:23;;;;;;;9.00;4.10;;;36.90;85.90;;;;;;5035451;28;20021;-55
2023/09/12 10:16:51;;;;;;;12.48;5.22;;;36.90;85.90;;;;;;5035971;28;20055;-51
2023/09/12 10:19:17;;;;;;;13.35;4.18;;;36.80;85.90;;;;;;5035490;28;20038;-50
2023/09/12 10:21:48;;;;;;;12.23;4.53;;;;;;;;;;5035258;28;20495;-52
2023/09/12 10:24:15;;;;;;;13.27;4.90;;;;;;;;;;5035437;28;20432;-53
2023/09/12 10:26:44;;;;;;;12.18;4.50;;;37.30;84.60;;;;;;5035264;28;20132;-51
2023/09/12 10:29:14;;;;;;;11.15;4.30;;;37.30;84.00;;;;;;5034015;28;20051;-50
2023/09/12 10:31:39;;;;;;;10.35;3.95;;;37.50;84.20;;;;;;5033528;28;20037;-50
2023/09/12 10:34:09;;;;;;;9.52;3.78;;;;;;;;;;5034428;28;20025;-49
2023/09/12 10:36:38;;;;;;;7.28;3.65;;;37.80;83.10;;;;;;5034269;28;20557;-53
2023/09/12 10:39:05;;;;;;;10.10;4.22;;;38.00;83.70;;;;;;4999897;28;20045;-52
2023/09/12 10:41:32;;;;;;;10.20;4.07;;;37.40;83.20;;;;;;5034911;28;20057;-51
2023/09/12 10:43:59;;;;;;;9.43;4.32;;;37.30;83.20;;;;;;5035164;28;20447;-52
2023/09/12 10:46:25;;;;;;;13.00;4.03;;;37.70;82.50;;;;;;5035010;28;20083;-52
2023/09/12 10:48:51;;;;;;;13.20;4.57;;;;;;;;;;5016432;28;20116;-53
2023/09/12 10:51:17;;;;;;;10.57;4.32;;;37.90;81.80;;;;;;5034643;28;20041;-54
2023/09/12 10:53:53;;;;;;;11.50;4.38;;;38.20;83.10;;;;;;5033962;28;20041;-53
2023/09/12 10:56:21;;;;;;;15.10;4.30;;;37.90;81.70;;;;;;5033976;28;20063;-51
2023/09/12 10:59:06;;;;;;;11.52;4.05;;;38.10;81.10;;;;;;4998583;28;20120;-54
2023/09/12 11:01:33;;;;;;;11.70;4.47;;;38.30;81.50;;;;;;5033669;28;20171;-52
2023/09/12 11:04:19;;;;;;;12.45;3.97;;;38.30;79.90;;;;;;5033414;28;20029;-53
2023/09/12 11:06:48;;;;;;;9.88;4.57;;;37.50;80.00;;;;;;5034316;28;20078;-53
2023/09/12 11:09:14;;;;;;;8.20;3.83;;;38.00;80.20;;;;;;5033840;28;20037;-52
2023/09/12 11:11:55;;;;;;;12.55;3.53;;;37.60;80.30;;;;;;5034726;28;20443;-52
2023/09/12 11:14:20;;;;;;;13.73;4.72;;;37.30;79.70;;;;;;5015750;28;20115;-53
2023/09/12 11:17:05;;;;;;;12.77;4.20;;;;;;;;;;5015900;28;20061;-50
2023/09/12 11:19:51;;;;;;;12.13;4.07;;;38.10;81.50;;;;;;5032975;28;20087;-50
2023/09/12 11:22:29;;;;;;;10.27;4.20;;;38.10;81.20;;;;;;5027635;28;20033;-53
2023/09/12 11:24:58;;;;;;;11.55;4.30;;;37.70;81.10;;;;;;5033819;28;20056;-52
2023/09/12 11:27:30;;;;;;;13.75;4.55;;;37.90;81.10;;;;;;5033714;28;20061;-51
2023/09/12 11:30:04;;;;;;;9.23;3.78;;;38.00;80.70;;;;;;5014454;28;20113;-51
2023/09/12 11:32:36;;;;;;;15.30;4.20;;;37.50;79.30;;;;;;5014436;28;20497;-50
2023/09/12 11:35:08;;;;;;;13.13;4.28;;;37.80;81.10;;;;;;5014775;28;20030;-53
2023/09/12 11:37:38;;;;;;;15.50;3.92;;;;;;;;;;5012586;28;20049;-50
2023/09/12 11:40:12;;;;;;;16.20;4.20;;;37.50;79.30;;;;;;5014090;28;20026;-50
2023/09/12 11:42:42;;;;;;;16.67;4.15;;;37.70;79.00;;;;;;4995999;28;20038;-50
2023/09/12 11:45:09;;;;;;;13.30;3.80;;;37.60;79.10;;;;;;5014601;28;20117;-53
2023/09/12 11:47:39;;;;;;;15.18;4.32;;;37.90;79.20;;;;;;5016209;28;20454;-52
2023/09/12 11:50:05;;;;;;;10.63;4.35;;;38.10;78.40;;;;;;5033573;28;20029;-53
2023/09/12 11:52:31;;;;;;;10.10;4.78;;;38.30;79.90;;;;;;4982542;28;20116;-51
2023/09/12 11:54:57;;;;;;;11.70;3.70;;;;;;;;;;5033724;28;20053;-51
2023/09/12 11:57:23;;;;;;;13.00;4.95;;;37.80;77.90;;;;;;5031635;28;20045;-52
2023/09/12 11:59:49;;;;;;;12.60;4.10;;;37.90;78.50;;;;;;5033452;28;20560;-52
2023/09/12 12:02:15;;;;;;;11.13;3.85;;;38.10;78.40;;;;;;5033508;28;20033;-52
2023/09/12 12:04:41;;;;;;;10.02;3.63;;;38.30;80.70;;;;;;5033832;28;20159;-53
2023/09/12 12:07:07;;;;;;;13.38;3.75;;;38.20;78.30;;;;;;5015299;28;20116;-51
2023/09/12 12:09:34;;;;;;;12.07;4.22;;;38.00;78.80;;;;;;5032797;28;20037;-52
2023/09/12 12:12:10;;;;;;;11.82;4.72;;;38.20;78.70;;;;;;5032853;28;20041;-51
2023/09/12 12:14:36;;;;;;;11.90;3.97;;;;;;;;;;4998320;28;20553;-52
2023/09/12 12:17:07;;;;;;;14.95;4.43;;;38.70;82.00;;;;;;5033077;28;20033;-52
2023/09/12 12:19:33;;;;;;;19.05;4.63;;;;;;;;;;5033216;28;20497;-52
2023/09/12 12:22:00;;;;;;;15.98;4.43;;;;;;;;;;5033435;28;20033;-52
2023/09/12 12:24:25;;;;;;;15.73;4.78;;;39.00;80.00;;;;;;5032137;28;20473;-53
2023/09/12 12:26:53;;;;;;;14.40;4.18;;;39.20;80.00;;;;;;5032862;28;20100;-52
2023/09/12 12:29:18;;;;;;;14.00;4.53;;;39.20;78.70;;;;;;5014988;28;20049;-53
2023/09/12 12:31:44;;;;;;;12.80;4.93;;;39.30;78.70;;;;;;5033256;28;20025;-52
2023/09/12 12:34:10;;;;;;;11.95;3.80;;;39.20;79.60;;;;;;5033149;28;20026;-52
2023/09/12 12:36:42;;;;;;;15.50;4.43;;;38.90;78.80;;;;;;5033610;28;20025;-53
2023/09/12 12:39:11;;;;;;;13.88;4.72;;;38.90;79.80;;;;;;5033235;28;20458;-52
2023/09/12 12:41:37;;;;;;;15.23;5.63;;;39.20;79.10;;;;;;5031787;28;20072;-53
2023/09/12 12:44:04;;;;;;;16.75;3.80;;;39.20;79.00;;;;;;5032957;28;20025;-51
2023/09/12 12:46:30;;;;;;;20.15;5.53;;;39.20;79.70;;;;;;5033632;28;20052;-53
2023/09/12 12:49:16;;;;;;;11.13;3.85;;;39.10;78.80;;;;;;5011260;28;20410;-52
2023/09/12 12:51:42;;;;;;;12.13;4.00;;;39.20;78.90;;;;;;4994759;28;20034;-51
2023/09/12 12:54:08;;;;;;;16.08;4.30;;;39.30;78.00;;;;;;5011288;28;20030;-52
2023/09/12 12:56:34;;;;;;;20.35;4.10;;;39.30;78.00;;;;;;5011373;28;20029;-50
2023/09/12 12:59:06;;;;;;;13.02;3.85;;;39.30;78.60;;;;;;5011095;28;20086;-53
2023/09/12 13:01:34;;;;;;;15.40;4.20;;;39.50;79.20;;;;;;5011002;28;20478;-50
2023/09/12 13:03:59;;;;;;;12.18;3.97;;;38.80;78.90;;;;;;5011012;28;20494;-52
2023/09/12 13:06:27;;;;;;;14.93;4.15;;;39.10;79.80;;;;;;4994575;28;20041;-51
2023/09/12 13:08:53;;;;;;;12.32;3.75;;;39.20;79.30;;;;;;5011017;28;20100;-51
2023/09/12 13:11:20;;;;;;;9.07;3.75;;;39.30;80.10;;;;;;5011073;28;20064;-51
2023/09/12 13:13:51;;;;;;;16.85;4.10;;;39.50;79.80;;;;;;5010961;28;20026;-53